メインページ
METAR-TAF:

METAR-TAF

空港 :

Fort Drum, ニューヨーク, アメリカ合衆国

緯度: 44-03N, 経度: 075-44W, 海抜: 207m

現時点の気象観測

当レポートは40分前の15:18(UTC)に作成
南東の風 7kt
気温 21°C
湿度 94%
気圧 1012 hPa
視程: 16.1km
高度600ftの雲はほとんどない
高度5000ftの千切れ雲あり
高度9000ftの千切れ雲あり
高度12000ftの曇り

METAR: KGTB 211518Z AUTO 13007KT 10SM FEW006 BKN050 BKN090 OVC120 21/20 A2988 RMK AO2 DZE18 SLP116

時間: 11:58 (15:58 UTC)

予報

当レポートは2時間43分前の13:15(UTC)に作成
予報は21日の 13時(UTC)から 22日の 15時(UTC)まで有効
西/南西の風 9kt
視程: 9000m
高度2000ftの雲は散在している
高度6000ftの曇り
弱いにわか雨
21日の 13時(UTC)から 21日の 15時(UTC)まで一時的に
西/南西の風 15kt、最大25ktの突風を伴う
視程: 3600m
高度1000ftの曇り, 積乱雲.
激しい雷雨, 小雨
21日の 21時(UTC)から 21日の 22時(UTC)まで徐々に
南西の風 9kt
視程10km以上
高度2500ftの曇り
22日の 02時(UTC)から 22日の 03時(UTC)まで徐々に
南/南西の風 6kt
視程: 8000m
高度1000ftの曇り
弱いにわか雨
22日の 05時(UTC)から 22日の 06時(UTC)まで徐々に
西の風 9kt
視程10km以上
高度1500ftの千切れ雲あり

TAF: KGTB 211315Z 2113/2215 25009KT 9000 -SHRA SCT020 OVC060 QNH2980INS TEMPO 2113/2115 24015G25KT 3600 -TSRA OVC010CB BECMG 2121/2122 22009KT 9999 NSW OVC025 QNH2978INS BECMG 2202/2203 20006KT 8000 -SHRA OVC010 QNH2976INS BECMG 2205/2206 26009KT 9999 NSW BKN015 QNH2973INS TX23/2120Z TN19/2113Z

4,000以上の空港の気象観測と天気予報(METAR報とTAF報)

利用可能な観測所は地図上に黄色い丸と赤い丸で示す。

丸の上にカーソルを重ねると観測所名を参照できる。

次にクリックすると気象観測と天気予報を参照できる。

マップの切り替え:黒色「×」印の緑ボタンをクリックして拡大、「-」印の緑ボタンをクリックして縮小、緑色の三角印をクリックして隣りの地図に切り替え


METAR-TAF: